sensor_id;sensor_type;location;lat;lon;timestamp;pressure;altitude;pressure_sealevel;temperature;humidity
76128;BME280;64873;50.102;14.434;2023-09-07T00:01:18;100021.41;;;16.11;75.42
76128;BME280;64873;50.102;14.434;2023-09-07T00:03:43;100021.19;;;16.24;75.06
76128;BME280;64873;50.102;14.434;2023-09-07T00:06:09;100025.41;;;16.20;74.81
76128;BME280;64873;50.102;14.434;2023-09-07T00:08:34;100018.81;;;16.16;74.99
76128;BME280;64873;50.102;14.434;2023-09-07T00:11:03;100017.56;;;16.07;75.38
76128;BME280;64873;50.102;14.434;2023-09-07T00:13:29;100019.88;;;16.04;75.08
76128;BME280;64873;50.102;14.434;2023-09-07T00:15:57;100018.81;;;16.05;75.12
76128;BME280;64873;50.102;14.434;2023-09-07T00:18:23;100015.44;;;15.97;75.36
76128;BME280;64873;50.102;14.434;2023-09-07T00:20:48;100022.69;;;15.97;75.54
76128;BME280;64873;50.102;14.434;2023-09-07T00:23:13;100017.53;;;15.84;76.28
76128;BME280;64873;50.102;14.434;2023-09-07T00:25:38;100021.63;;;15.98;75.47
76128;BME280;64873;50.102;14.434;2023-09-07T00:28:04;100018.59;;;15.94;75.70
76128;BME280;64873;50.102;14.434;2023-09-07T00:30:29;100029.47;;;15.99;75.19
76128;BME280;64873;50.102;14.434;2023-09-07T00:32:54;100025.03;;;16.05;75.07
76128;BME280;64873;50.102;14.434;2023-09-07T00:35:20;100029.34;;;15.83;76.00
76128;BME280;64873;50.102;14.434;2023-09-07T00:37:45;100027.72;;;15.82;76.03
76128;BME280;64873;50.102;14.434;2023-09-07T00:40:10;100028.75;;;15.69;76.44
76128;BME280;64873;50.102;14.434;2023-09-07T00:42:36;100028.41;;;15.65;76.82
76128;BME280;64873;50.102;14.434;2023-09-07T00:45:01;100027.56;;;15.65;76.61
76128;BME280;64873;50.102;14.434;2023-09-07T00:47:27;100030.00;;;15.55;77.06
76128;BME280;64873;50.102;14.434;2023-09-07T00:49:52;100027.34;;;15.66;76.44
76128;BME280;64873;50.102;14.434;2023-09-07T00:52:17;100038.34;;;15.65;76.79
76128;BME280;64873;50.102;14.434;2023-09-07T00:54:43;100037.09;;;15.37;77.89
76128;BME280;64873;50.102;14.434;2023-09-07T00:57:08;100025.50;;;15.37;78.30
76128;BME280;64873;50.102;14.434;2023-09-07T00:59:34;100037.63;;;15.28;78.80
76128;BME280;64873;50.102;14.434;2023-09-07T01:01:59;100036.59;;;15.40;78.48
76128;BME280;64873;50.102;14.434;2023-09-07T01:04:24;100026.84;;;15.28;79.12
76128;BME280;64873;50.102;14.434;2023-09-07T01:06:57;100026.63;;;15.29;79.24
76128;BME280;64873;50.102;14.434;2023-09-07T01:09:26;100031.78;;;15.31;79.01
76128;BME280;64873;50.102;14.434;2023-09-07T01:11:53;100036.44;;;15.24;79.28
76128;BME280;64873;50.102;14.434;2023-09-07T01:14:18;100033.63;;;15.18;79.28
76128;BME280;64873;50.102;14.434;2023-09-07T01:16:44;100025.56;;;15.18;79.58
76128;BME280;64873;50.102;14.434;2023-09-07T01:19:09;100031.19;;;15.29;79.12
76128;BME280;64873;50.102;14.434;2023-09-07T01:21:38;100024.16;;;15.28;79.32
76128;BME280;64873;50.102;14.434;2023-09-07T01:24:07;100030.50;;;15.33;79.19
76128;BME280;64873;50.102;14.434;2023-09-07T01:26:33;100033.72;;;15.42;78.66
76128;BME280;64873;50.102;14.434;2023-09-07T01:29:00;100028.50;;;15.29;79.33
76128;BME280;64873;50.102;14.434;2023-09-07T01:31:25;100026.84;;;15.28;79.16
76128;BME280;64873;50.102;14.434;2023-09-07T01:33:50;100031.03;;;15.24;79.25
76128;BME280;64873;50.102;14.434;2023-09-07T01:36:16;100033.22;;;15.45;78.33
76128;BME280;64873;50.102;14.434;2023-09-07T01:38:41;100028.78;;;15.39;78.21
76128;BME280;64873;50.102;14.434;2023-09-07T01:41:06;100032.97;;;15.35;78.25
76128;BME280;64873;50.102;14.434;2023-09-07T01:43:32;100022.97;;;15.24;78.57
76128;BME280;64873;50.102;14.434;2023-09-07T01:45:58;100029.91;;;15.31;77.99
76128;BME280;64873;50.102;14.434;2023-09-07T01:48:23;100033.63;;;15.18;78.16
76128;BME280;64873;50.102;14.434;2023-09-07T01:50:52;100031.13;;;15.17;78.24
76128;BME280;64873;50.102;14.434;2023-09-07T01:53:17;100032.88;;;15.11;78.67
76128;BME280;64873;50.102;14.434;2023-09-07T01:55:42;100031.84;;;14.94;79.39
76128;BME280;64873;50.102;14.434;2023-09-07T01:58:07;100027.13;;;14.78;79.77
76128;BME280;64873;50.102;14.434;2023-09-07T02:00:36;100029.56;;;14.79;79.94
76128;BME280;64873;50.102;14.434;2023-09-07T02:03:01;100034.41;;;14.71;80.21
76128;BME280;64873;50.102;14.434;2023-09-07T02:05:27;100037.09;;;14.71;80.52
76128;BME280;64873;50.102;14.434;2023-09-07T02:07:52;100027.38;;;14.88;79.86
76128;BME280;64873;50.102;14.434;2023-09-07T02:10:17;100028.66;;;14.85;79.71
76128;BME280;64873;50.102;14.434;2023-09-07T02:12:45;100026.69;;;14.92;79.42
76128;BME280;64873;50.102;14.434;2023-09-07T02:15:10;100034.03;;;14.85;79.29
76128;BME280;64873;50.102;14.434;2023-09-07T02:17:35;100034.88;;;14.86;79.63
76128;BME280;64873;50.102;14.434;2023-09-07T02:20:01;100031.66;;;14.77;79.85
76128;BME280;64873;50.102;14.434;2023-09-07T02:22:26;100028.00;;;14.72;80.00
76128;BME280;64873;50.102;14.434;2023-09-07T02:24:51;100039.63;;;14.65;80.28
76128;BME280;64873;50.102;14.434;2023-09-07T02:27:16;100031.56;;;14.65;80.24
76128;BME280;64873;50.102;14.434;2023-09-07T02:29:42;100040.25;;;14.68;80.42
76128;BME280;64873;50.102;14.434;2023-09-07T02:32:07;100036.06;;;14.53;80.75
76128;BME280;64873;50.102;14.434;2023-09-07T02:34:34;100044.44;;;14.63;80.33
76128;BME280;64873;50.102;14.434;2023-09-07T02:37:01;100043.84;;;14.61;80.66
76128;BME280;64873;50.102;14.434;2023-09-07T02:39:26;100039.94;;;14.76;79.94
76128;BME280;64873;50.102;14.434;2023-09-07T02:41:52;100040.09;;;14.62;80.08
76128;BME280;64873;50.102;14.434;2023-09-07T02:44:17;100039.22;;;14.69;79.72
76128;BME280;64873;50.102;14.434;2023-09-07T02:46:43;100043.69;;;14.75;79.71
76128;BME280;64873;50.102;14.434;2023-09-07T02:49:08;100044.28;;;14.58;80.61
76128;BME280;64873;50.102;14.434;2023-09-07T02:51:33;100048.34;;;14.68;80.48
76128;BME280;64873;50.102;14.434;2023-09-07T02:53:58;100049.53;;;14.72;80.01
76128;BME280;64873;50.102;14.434;2023-09-07T02:56:24;100054.53;;;14.68;79.99
76128;BME280;64873;50.102;14.434;2023-09-07T02:58:50;100043.84;;;14.61;80.18
76128;BME280;64873;50.102;14.434;2023-09-07T03:01:15;100046.03;;;14.46;80.87
76128;BME280;64873;50.102;14.434;2023-09-07T03:03:44;100049.53;;;14.28;81.55
76128;BME280;64873;50.102;14.434;2023-09-07T03:06:12;100055.31;;;14.32;81.77
76128;BME280;64873;50.102;14.434;2023-09-07T03:08:39;100047.81;;;14.34;81.76
76128;BME280;64873;50.102;14.434;2023-09-07T03:11:04;100054.69;;;14.30;81.75
76128;BME280;64873;50.102;14.434;2023-09-07T03:13:30;100045.72;;;14.36;81.74
76128;BME280;64873;50.102;14.434;2023-09-07T03:15:55;100048.47;;;14.29;81.87
76128;BME280;64873;50.102;14.434;2023-09-07T03:18:21;100052.78;;;14.37;81.35
76128;BME280;64873;50.102;14.434;2023-09-07T03:20:46;100055.59;;;14.42;81.50
76128;BME280;64873;50.102;14.434;2023-09-07T03:23:12;100062.75;;;14.30;81.39
76128;BME280;64873;50.102;14.434;2023-09-07T03:25:37;100053.09;;;14.22;82.28
76128;BME280;64873;50.102;14.434;2023-09-07T03:28:02;100055.38;;;14.44;81.29
76128;BME280;64873;50.102;14.434;2023-09-07T03:30:28;100052.53;;;14.38;81.14
76128;BME280;64873;50.102;14.434;2023-09-07T03:32:53;100054.09;;;14.28;81.60
76128;BME280;64873;50.102;14.434;2023-09-07T03:35:19;100051.41;;;14.28;81.79
76128;BME280;64873;50.102;14.434;2023-09-07T03:37:44;100057.34;;;14.11;82.77
76128;BME280;64873;50.102;14.434;2023-09-07T03:40:10;100053.16;;;14.16;82.49
76128;BME280;64873;50.102;14.434;2023-09-07T03:42:35;100046.59;;;14.11;82.60
76128;BME280;64873;50.102;14.434;2023-09-07T03:45:00;100056.28;;;14.12;82.67
76128;BME280;64873;50.102;14.434;2023-09-07T03:47:26;100059.59;;;14.14;82.56
76128;BME280;64873;50.102;14.434;2023-09-07T03:49:54;100054.66;;;14.11;82.60
76128;BME280;64873;50.102;14.434;2023-09-07T03:52:19;100065.09;;;14.01;82.90
76128;BME280;64873;50.102;14.434;2023-09-07T03:54:47;100067.16;;;13.99;83.21
76128;BME280;64873;50.102;14.434;2023-09-07T03:57:12;100066.22;;;14.12;82.53
76128;BME280;64873;50.102;14.434;2023-09-07T03:59:37;100062.66;;;13.93;83.70
76128;BME280;64873;50.102;14.434;2023-09-07T04:02:03;100067.28;;;13.86;83.85
76128;BME280;64873;50.102;14.434;2023-09-07T04:04:28;100067.69;;;13.83;84.22
76128;BME280;64873;50.102;14.434;2023-09-07T04:06:53;100063.13;;;13.90;83.94
76128;BME280;64873;50.102;14.434;2023-09-07T04:09:18;100066.44;;;13.85;83.87
76128;BME280;64873;50.102;14.434;2023-09-07T04:11:44;100061.59;;;13.69;84.54
76128;BME280;64873;50.102;14.434;2023-09-07T04:14:09;100064.69;;;13.73;84.30
76128;BME280;64873;50.102;14.434;2023-09-07T04:16:34;100071.88;;;13.79;84.09
76128;BME280;64873;50.102;14.434;2023-09-07T04:18:59;100069.38;;;13.84;83.73
76128;BME280;64873;50.102;14.434;2023-09-07T04:21:25;100062.78;;;13.80;84.16
76128;BME280;64873;50.102;14.434;2023-09-07T04:23:50;100058.88;;;13.76;84.39
76128;BME280;64873;50.102;14.434;2023-09-07T04:26:15;100078.25;;;13.84;83.95
76128;BME280;64873;50.102;14.434;2023-09-07T04:28:41;100070.13;;;13.91;83.75
76128;BME280;64873;50.102;14.434;2023-09-07T04:31:06;100080.44;;;13.94;83.44
76128;BME280;64873;50.102;14.434;2023-09-07T04:33:32;100075.28;;;13.93;83.88
76128;BME280;64873;50.102;14.434;2023-09-07T04:36:06;100075.16;;;13.81;84.05
76128;BME280;64873;50.102;14.434;2023-09-07T04:38:31;100077.50;;;13.71;84.28
76128;BME280;64873;50.102;14.434;2023-09-07T04:41:04;100076.44;;;13.72;84.59
76128;BME280;64873;50.102;14.434;2023-09-07T04:43:30;100075.38;;;13.48;85.63
76128;BME280;64873;50.102;14.434;2023-09-07T04:45:55;100064.25;;;13.44;86.20
76128;BME280;64873;50.102;14.434;2023-09-07T04:48:20;100071.66;;;13.49;86.13
76128;BME280;64873;50.102;14.434;2023-09-07T04:50:45;100071.53;;;13.69;85.22
76128;BME280;64873;50.102;14.434;2023-09-07T04:53:11;100064.41;;;13.81;84.54
76128;BME280;64873;50.102;14.434;2023-09-07T04:55:39;100069.63;;;13.76;84.70
76128;BME280;64873;50.102;14.434;2023-09-07T04:58:04;100063.47;;;13.69;84.76
76128;BME280;64873;50.102;14.434;2023-09-07T05:00:29;100066.75;;;13.71;84.57
76128;BME280;64873;50.102;14.434;2023-09-07T05:02:55;100067.22;;;13.68;84.75
76128;BME280;64873;50.102;14.434;2023-09-07T05:05:20;100062.59;;;13.75;84.62
76128;BME280;64873;50.102;14.434;2023-09-07T05:07:45;100072.94;;;13.71;84.54
76128;BME280;64873;50.102;14.434;2023-09-07T05:10:11;100078.94;;;13.73;84.52
76128;BME280;64873;50.102;14.434;2023-09-07T05:12:37;100067.38;;;13.73;84.49
76128;BME280;64873;50.102;14.434;2023-09-07T05:15:03;100068.97;;;13.80;84.14
76128;BME280;64873;50.102;14.434;2023-09-07T05:17:31;100076.38;;;13.85;83.94
76128;BME280;64873;50.102;14.434;2023-09-07T05:19:56;100076.44;;;13.72;84.47
76128;BME280;64873;50.102;14.434;2023-09-07T05:22:21;100081.31;;;13.88;84.08
76128;BME280;64873;50.102;14.434;2023-09-07T05:24:47;100077.44;;;13.84;84.00
76128;BME280;64873;50.102;14.434;2023-09-07T05:27:12;100077.56;;;13.89;84.39
76128;BME280;64873;50.102;14.434;2023-09-07T05:29:37;100076.28;;;13.98;84.18
76128;BME280;64873;50.102;14.434;2023-09-07T05:32:03;100079.72;;;14.05;83.95
76128;BME280;64873;50.102;14.434;2023-09-07T05:34:29;100070.94;;;14.17;83.34
76128;BME280;64873;50.102;14.434;2023-09-07T05:36:55;100077.44;;;14.09;83.55
76128;BME280;64873;50.102;14.434;2023-09-07T05:39:20;100073.63;;;14.17;83.64
76128;BME280;64873;50.102;14.434;2023-09-07T05:41:45;100075.00;;;14.26;83.04
76128;BME280;64873;50.102;14.434;2023-09-07T05:44:10;100083.81;;;14.33;82.87
76128;BME280;64873;50.102;14.434;2023-09-07T05:46:36;100077.56;;;14.39;82.49
76128;BME280;64873;50.102;14.434;2023-09-07T05:49:01;100091.00;;;14.39;82.60
76128;BME280;64873;50.102;14.434;2023-09-07T05:51:26;100094.13;;;14.36;82.96
76128;BME280;64873;50.102;14.434;2023-09-07T05:53:53;100081.31;;;14.38;82.66
76128;BME280;64873;50.102;14.434;2023-09-07T05:56:20;100090.13;;;14.45;82.56
76128;BME280;64873;50.102;14.434;2023-09-07T05:58:45;100089.25;;;14.51;82.51
76128;BME280;64873;50.102;14.434;2023-09-07T06:01:10;100086.38;;;14.46;82.56
76128;BME280;64873;50.102;14.434;2023-09-07T06:03:35;100081.03;;;14.64;82.15
76128;BME280;64873;50.102;14.434;2023-09-07T06:06:01;100090.16;;;14.63;82.15
76128;BME280;64873;50.102;14.434;2023-09-07T06:08:27;100081.28;;;14.81;81.61
76128;BME280;64873;50.102;14.434;2023-09-07T06:10:53;100085.53;;;14.89;81.48
76128;BME280;64873;50.102;14.434;2023-09-07T06:13:18;100085.41;;;15.02;80.94
76128;BME280;64873;50.102;14.434;2023-09-07T06:15:43;100087.63;;;15.05;80.83
76128;BME280;64873;50.102;14.434;2023-09-07T06:18:08;100082.63;;;15.09;80.54
76128;BME280;64873;50.102;14.434;2023-09-07T06:20:34;100086.09;;;15.28;80.05
76128;BME280;64873;50.102;14.434;2023-09-07T06:23:00;100086.00;;;15.34;79.77
76128;BME280;64873;50.102;14.434;2023-09-07T06:25:25;100085.56;;;15.37;79.62
76128;BME280;64873;50.102;14.434;2023-09-07T06:27:51;100085.91;;;15.41;79.57
76128;BME280;64873;50.102;14.434;2023-09-07T06:30:16;100093.69;;;15.49;79.52
76128;BME280;64873;50.102;14.434;2023-09-07T06:32:41;100090.91;;;15.56;79.19
76128;BME280;64873;50.102;14.434;2023-09-07T06:35:07;100098.00;;;15.68;78.79
76128;BME280;64873;50.102;14.434;2023-09-07T06:37:33;100090.28;;;15.72;78.65
76128;BME280;64873;50.102;14.434;2023-09-07T06:39:58;100087.47;;;15.79;78.03
76128;BME280;64873;50.102;14.434;2023-09-07T06:42:23;100101.31;;;15.94;77.79
76128;BME280;64873;50.102;14.434;2023-09-07T06:44:48;100103.72;;;16.02;77.47
76128;BME280;64873;50.102;14.434;2023-09-07T06:47:14;100097.84;;;16.17;76.66
76128;BME280;64873;50.102;14.434;2023-09-07T06:49:39;100100.44;;;16.23;76.56
76128;BME280;64873;50.102;14.434;2023-09-07T06:52:05;100097.41;;;16.32;76.29
76128;BME280;64873;50.102;14.434;2023-09-07T06:54:30;100091.78;;;16.33;76.53
76128;BME280;64873;50.102;14.434;2023-09-07T06:56:55;100096.72;;;16.48;76.03
76128;BME280;64873;50.102;14.434;2023-09-07T06:59:20;100095.41;;;16.50;76.01
76128;BME280;64873;50.102;14.434;2023-09-07T07:01:46;100094.00;;;16.60;76.02
76128;BME280;64873;50.102;14.434;2023-09-07T07:04:11;100094.00;;;16.60;76.04
76128;BME280;64873;50.102;14.434;2023-09-07T07:06:36;100098.47;;;16.77;75.27
76128;BME280;64873;50.102;14.434;2023-09-07T07:09:02;100095.97;;;16.88;74.70
76128;BME280;64873;50.102;14.434;2023-09-07T07:11:27;100103.22;;;16.99;74.64
76128;BME280;64873;50.102;14.434;2023-09-07T07:13:52;100092.06;;;17.07;74.32
76128;BME280;64873;50.102;14.434;2023-09-07T07:16:18;100100.97;;;17.19;73.69
76128;BME280;64873;50.102;14.434;2023-09-07T07:18:43;100110.19;;;17.23;73.43
76128;BME280;64873;50.102;14.434;2023-09-07T07:21:08;100115.13;;;17.26;73.46
76128;BME280;64873;50.102;14.434;2023-09-07T07:23:34;100103.56;;;17.43;72.81
76128;BME280;64873;50.102;14.434;2023-09-07T07:26:00;100106.84;;;17.45;73.11
76128;BME280;64873;50.102;14.434;2023-09-07T07:28:25;100107.38;;;17.58;72.53
76128;BME280;64873;50.102;14.434;2023-09-07T07:30:50;100105.41;;;17.54;72.61
76128;BME280;64873;50.102;14.434;2023-09-07T07:33:17;100105.94;;;17.68;72.76
76128;BME280;64873;50.102;14.434;2023-09-07T07:35:42;100099.41;;;17.80;71.66
76128;BME280;64873;50.102;14.434;2023-09-07T07:38:08;100106.00;;;17.84;71.84
76128;BME280;64873;50.102;14.434;2023-09-07T07:40:33;100103.53;;;18.00;71.08
76128;BME280;64873;50.102;14.434;2023-09-07T07:42:59;100104.84;;;18.14;70.89
76128;BME280;64873;50.102;14.434;2023-09-07T07:45:24;100109.84;;;18.22;70.47
76128;BME280;64873;50.102;14.434;2023-09-07T07:47:50;100105.13;;;18.29;69.95
76128;BME280;64873;50.102;14.434;2023-09-07T07:50:16;100109.59;;;18.41;69.86
76128;BME280;64873;50.102;14.434;2023-09-07T07:52:41;100105.31;;;18.45;69.34
76128;BME280;64873;50.102;14.434;2023-09-07T07:55:06;100099.41;;;18.64;68.40
76128;BME280;64873;50.102;14.434;2023-09-07T07:57:32;100108.44;;;18.70;67.41
76128;BME280;64873;50.102;14.434;2023-09-07T07:59:57;100106.44;;;18.82;66.99
76128;BME280;64873;50.102;14.434;2023-09-07T08:02:22;100099.31;;;18.98;66.20
76128;BME280;64873;50.102;14.434;2023-09-07T08:04:48;100093.16;;;19.25;65.26
76128;BME280;64873;50.102;14.434;2023-09-07T08:07:13;100090.75;;;19.28;65.16
76128;BME280;64873;50.102;14.434;2023-09-07T08:09:38;100098.38;;;19.31;64.52
76128;BME280;64873;50.102;14.434;2023-09-07T08:12:04;100095.31;;;19.50;63.87
76128;BME280;64873;50.102;14.434;2023-09-07T08:14:30;100095.94;;;19.57;63.97
76128;BME280;64873;50.102;14.434;2023-09-07T08:16:56;100091.31;;;19.57;63.73
76128;BME280;64873;50.102;14.434;2023-09-07T08:19:21;100098.94;;;19.82;62.92
76128;BME280;64873;50.102;14.434;2023-09-07T08:21:46;100089.13;;;19.81;62.39
76128;BME280;64873;50.102;14.434;2023-09-07T08:24:12;100091.34;;;19.84;62.46
76128;BME280;64873;50.102;14.434;2023-09-07T08:26:38;100082.22;;;19.95;62.10
76128;BME280;64873;50.102;14.434;2023-09-07T08:29:03;100090.91;;;19.97;61.66
76128;BME280;64873;50.102;14.434;2023-09-07T08:31:34;100088.63;;;20.16;60.36
76128;BME280;64873;50.102;14.434;2023-09-07T08:34:05;100073.72;;;20.19;60.48
76128;BME280;64873;50.102;14.434;2023-09-07T08:36:31;100076.53;;;20.29;59.86
76128;BME280;64873;50.102;14.434;2023-09-07T08:39:06;100086.47;;;20.56;58.58
76128;BME280;64873;50.102;14.434;2023-09-07T08:41:39;100083.72;;;20.50;58.57
76128;BME280;64873;50.102;14.434;2023-09-07T08:44:07;100082.09;;;20.49;58.74
76128;BME280;64873;50.102;14.434;2023-09-07T08:46:34;100078.88;;;20.58;58.66
76128;BME280;64873;50.102;14.434;2023-09-07T08:49:00;100080.81;;;20.62;58.70
76128;BME280;64873;50.102;14.434;2023-09-07T08:51:26;100089.34;;;20.76;57.87
76128;BME280;64873;50.102;14.434;2023-09-07T08:53:53;100087.69;;;20.80;57.99
76128;BME280;64873;50.102;14.434;2023-09-07T08:56:18;100081.41;;;20.74;57.96
76128;BME280;64873;50.102;14.434;2023-09-07T08:58:46;100076.84;;;20.80;57.99
76128;BME280;64873;50.102;14.434;2023-09-07T09:01:14;100083.47;;;21.04;57.14
76128;BME280;64873;50.102;14.434;2023-09-07T09:03:39;100077.44;;;20.97;57.44
76128;BME280;64873;50.102;14.434;2023-09-07T09:06:05;100077.19;;;20.99;57.38
76128;BME280;64873;50.102;14.434;2023-09-07T09:08:41;100071.03;;;21.24;56.92
76128;BME280;64873;50.102;14.434;2023-09-07T09:11:06;100071.03;;;21.24;56.79
76128;BME280;64873;50.102;14.434;2023-09-07T09:13:32;100071.53;;;21.16;57.21
76128;BME280;64873;50.102;14.434;2023-09-07T09:16:01;100082.03;;;21.65;56.12
76128;BME280;64873;50.102;14.434;2023-09-07T09:18:26;100080.63;;;21.42;56.25
76128;BME280;64873;50.102;14.434;2023-09-07T09:20:52;100071.09;;;21.44;56.57
76128;BME280;64873;50.102;14.434;2023-09-07T09:23:17;100074.97;;;21.64;55.81
76128;BME280;64873;50.102;14.434;2023-09-07T09:25:43;100078.19;;;21.45;56.54
76128;BME280;64873;50.102;14.434;2023-09-07T09:28:11;100072.75;;;21.55;56.63
76128;BME280;64873;50.102;14.434;2023-09-07T09:30:37;100074.13;;;21.68;56.30
76128;BME280;64873;50.102;14.434;2023-09-07T09:33:02;100076.56;;;21.54;56.19
76128;BME280;64873;50.102;14.434;2023-09-07T09:35:30;100066.28;;;21.82;55.86
76128;BME280;64873;50.102;14.434;2023-09-07T09:37:56;100073.03;;;21.69;56.65
76128;BME280;64873;50.102;14.434;2023-09-07T09:40:25;100062.47;;;21.78;56.16
76128;BME280;64873;50.102;14.434;2023-09-07T09:42:50;100065.44;;;21.92;55.49
76128;BME280;64873;50.102;14.434;2023-09-07T09:45:17;100063.81;;;21.91;56.04
76128;BME280;64873;50.102;14.434;2023-09-07T09:47:44;100061.38;;;21.84;56.60
76128;BME280;64873;50.102;14.434;2023-09-07T09:50:10;100051.03;;;21.91;56.46
76128;BME280;64873;50.102;14.434;2023-09-07T09:52:35;100046.69;;;22.00;56.41
76128;BME280;64873;50.102;14.434;2023-09-07T09:55:05;100048.34;;;22.12;56.15
76128;BME280;64873;50.102;14.434;2023-09-07T09:57:33;100046.69;;;22.05;56.15
76128;BME280;64873;50.102;14.434;2023-09-07T09:59:59;100047.50;;;22.01;56.05
76128;BME280;64873;50.102;14.434;2023-09-07T10:02:28;100054.84;;;22.26;55.96
76128;BME280;64873;50.102;14.434;2023-09-07T10:04:55;100046.13;;;22.34;55.98
76128;BME280;64873;50.102;14.434;2023-09-07T10:07:28;100043.41;;;22.34;55.53
76128;BME280;64873;50.102;14.434;2023-09-07T10:09:55;100037.69;;;22.30;55.35
76128;BME280;64873;50.102;14.434;2023-09-07T10:12:26;100035.88;;;22.80;53.50
76128;BME280;64873;50.102;14.434;2023-09-07T10:14:52;100040.00;;;22.73;53.69
76128;BME280;64873;50.102;14.434;2023-09-07T10:17:23;100027.97;;;22.84;52.64
76128;BME280;64873;50.102;14.434;2023-09-07T10:19:48;100034.56;;;22.68;53.58
76128;BME280;64873;50.102;14.434;2023-09-07T10:22:23;100036.75;;;22.76;53.34
76128;BME280;64873;50.102;14.434;2023-09-07T10:24:56;100033.41;;;22.99;52.92
76128;BME280;64873;50.102;14.434;2023-09-07T10:27:21;100026.41;;;22.62;53.98
76128;BME280;64873;50.102;14.434;2023-09-07T10:29:50;100031.78;;;22.93;53.69
76128;BME280;64873;50.102;14.434;2023-09-07T10:32:17;100030.72;;;22.79;53.16
76128;BME280;64873;50.102;14.434;2023-09-07T10:34:42;100029.19;;;22.57;54.06
76128;BME280;64873;50.102;14.434;2023-09-07T10:37:11;100018.53;;;23.21;52.88
76128;BME280;64873;50.102;14.434;2023-09-07T10:39:38;100029.53;;;23.10;52.49
76128;BME280;64873;50.102;14.434;2023-09-07T10:42:04;100027.63;;;23.11;52.90
76128;BME280;64873;50.102;14.434;2023-09-07T10:44:29;100029.91;;;22.78;53.18
76128;BME280;64873;50.102;14.434;2023-09-07T10:46:55;100026.81;;;23.10;52.35
76128;BME280;64873;50.102;14.434;2023-09-07T10:49:21;100019.47;;;23.45;51.31
76128;BME280;64873;50.102;14.434;2023-09-07T10:51:47;100023.03;;;23.46;51.96
76128;BME280;64873;50.102;14.434;2023-09-07T10:54:18;100019.94;;;23.18;52.33
76128;BME280;64873;50.102;14.434;2023-09-07T10:56:44;100013.00;;;23.36;51.76
76128;BME280;64873;50.102;14.434;2023-09-07T10:59:09;100017.97;;;23.29;51.86
76128;BME280;64873;50.102;14.434;2023-09-07T11:01:34;100012.41;;;23.39;51.80
76128;BME280;64873;50.102;14.434;2023-09-07T11:04:00;100010.78;;;23.38;51.58
76128;BME280;64873;50.102;14.434;2023-09-07T11:06:26;100007.06;;;23.29;51.89
76128;BME280;64873;50.102;14.434;2023-09-07T11:08:51;100008.63;;;23.40;51.44
76128;BME280;64873;50.102;14.434;2023-09-07T11:11:17;100005.38;;;23.72;50.36
76128;BME280;64873;50.102;14.434;2023-09-07T11:13:42;100005.91;;;24.03;49.79
76128;BME280;64873;50.102;14.434;2023-09-07T11:16:08;100006.19;;;23.73;51.60
76128;BME280;64873;50.102;14.434;2023-09-07T11:18:34;100003.13;;;24.08;49.29
76128;BME280;64873;50.102;14.434;2023-09-07T11:21:02;100002.78;;;23.86;49.15
76128;BME280;64873;50.102;14.434;2023-09-07T11:23:32;99995.44;;;23.52;52.88
76128;BME280;64873;50.102;14.434;2023-09-07T11:26:07;99996.00;;;23.83;49.65
76128;BME280;64873;50.102;14.434;2023-09-07T11:28:32;99992.59;;;24.26;47.89
76128;BME280;64873;50.102;14.434;2023-09-07T11:30:58;99984.84;;;24.33;48.13
76128;BME280;64873;50.102;14.434;2023-09-07T11:33:23;99988.94;;;25.02;48.52
76128;BME280;64873;50.102;14.434;2023-09-07T11:35:49;99987.38;;;24.96;47.62
76128;BME280;64873;50.102;14.434;2023-09-07T11:38:15;99984.13;;;24.94;48.33
76128;BME280;64873;50.102;14.434;2023-09-07T11:40:41;99984.75;;;24.67;47.73
76128;BME280;64873;50.102;14.434;2023-09-07T11:43:13;99987.41;;;24.53;49.59
76128;BME280;64873;50.102;14.434;2023-09-07T11:45:39;99985.16;;;24.55;47.32
76128;BME280;64873;50.102;14.434;2023-09-07T11:48:05;99985.75;;;24.95;45.54
76128;BME280;64873;50.102;14.434;2023-09-07T11:50:30;99988.03;;;24.69;48.46
76128;BME280;64873;50.102;14.434;2023-09-07T11:52:56;99981.81;;;24.63;47.40
76128;BME280;64873;50.102;14.434;2023-09-07T11:55:21;99990.91;;;24.30;48.25
76128;BME280;64873;50.102;14.434;2023-09-07T11:57:47;99981.66;;;24.26;49.56
76128;BME280;64873;50.102;14.434;2023-09-07T12:00:12;99989.34;;;24.71;46.15
76128;BME280;64873;50.102;14.434;2023-09-07T12:02:39;99979.00;;;24.68;45.82
76128;BME280;64873;50.102;14.434;2023-09-07T12:05:05;99986.09;;;24.69;46.52
76128;BME280;64873;50.102;14.434;2023-09-07T12:07:33;99983.44;;;24.83;46.72
76128;BME280;64873;50.102;14.434;2023-09-07T12:09:58;99977.63;;;24.47;47.50
76128;BME280;64873;50.102;14.434;2023-09-07T12:12:23;99978.84;;;24.36;49.90
76128;BME280;64873;50.102;14.434;2023-09-07T12:14:48;99984.81;;;24.38;48.00
76128;BME280;64873;50.102;14.434;2023-09-07T12:17:14;99981.97;;;24.48;46.66
76128;BME280;64873;50.102;14.434;2023-09-07T12:19:39;99970.97;;;24.29;46.85
76128;BME280;64873;50.102;14.434;2023-09-07T12:22:07;99970.63;;;24.60;47.90
76128;BME280;64873;50.102;14.434;2023-09-07T12:24:32;99974.31;;;24.93;44.89
76128;BME280;64873;50.102;14.434;2023-09-07T12:26:58;99969.84;;;24.97;46.24
76128;BME280;64873;50.102;14.434;2023-09-07T12:29:24;99960.63;;;24.50;49.10
76128;BME280;64873;50.102;14.434;2023-09-07T12:31:50;99957.94;;;25.12;45.86
76128;BME280;64873;50.102;14.434;2023-09-07T12:34:15;99960.28;;;25.18;43.49